sensor_id;sensor_type;location;lat;lon;timestamp;pressure;altitude;pressure_sealevel;temperature;humidity
2192;BME280;1102;49.718;11.902;2022-07-05T00:01:19;96538.81;;;18.82;73.68
2192;BME280;1102;49.718;11.902;2022-07-05T00:03:46;96539.88;;;18.67;74.97
2192;BME280;1102;49.718;11.902;2022-07-05T00:06:13;96532.16;;;18.62;73.51
2192;BME280;1102;49.718;11.902;2022-07-05T00:08:39;96544.84;;;18.69;73.68
2192;BME280;1102;49.718;11.902;2022-07-05T00:11:06;96529.00;;;18.46;73.30
2192;BME280;1102;49.718;11.902;2022-07-05T00:13:33;96522.53;;;18.50;72.58
2192;BME280;1102;49.718;11.902;2022-07-05T00:16:00;96519.44;;;18.45;72.38
2192;BME280;1102;49.718;11.902;2022-07-05T00:18:27;96507.59;;;18.46;71.48
2192;BME280;1102;49.718;11.902;2022-07-05T00:20:53;96537.28;;;18.81;70.59
2192;BME280;1102;49.718;11.902;2022-07-05T00:23:20;96546.84;;;18.79;70.19
2192;BME280;1102;49.718;11.902;2022-07-05T00:25:47;96523.38;;;18.61;69.87
2192;BME280;1102;49.718;11.902;2022-07-05T00:28:14;96516.94;;;18.70;69.08
2192;BME280;1102;49.718;11.902;2022-07-05T00:30:41;96517.00;;;18.80;68.72
2192;BME280;1102;49.718;11.902;2022-07-05T00:33:08;96539.94;;;18.74;69.02
2192;BME280;1102;49.718;11.902;2022-07-05T00:35:35;96542.56;;;18.67;68.32
2192;BME280;1102;49.718;11.902;2022-07-05T00:38:02;96540.84;;;18.45;68.74
2192;BME280;1102;49.718;11.902;2022-07-05T00:40:29;96506.00;;;18.38;68.42
2192;BME280;1102;49.718;11.902;2022-07-05T00:42:56;96527.88;;;18.50;67.56
2192;BME280;1102;49.718;11.902;2022-07-05T00:45:32;96540.91;;;18.55;67.52
2192;BME280;1102;49.718;11.902;2022-07-05T00:47:58;96541.00;;;18.66;67.23
2192;BME280;1102;49.718;11.902;2022-07-05T00:50:45;96549.09;;;18.70;66.54
2192;BME280;1102;49.718;11.902;2022-07-05T00:53:12;96548.34;;;18.76;66.71
2192;BME280;1102;49.718;11.902;2022-07-05T00:55:39;96506.34;;;18.33;66.95
2192;BME280;1102;49.718;11.902;2022-07-05T00:58:06;96518.00;;;18.10;67.25
2192;BME280;1102;49.718;11.902;2022-07-05T01:00:33;96540.41;;;18.36;67.89
2192;BME280;1102;49.718;11.902;2022-07-05T01:03:00;96537.50;;;18.07;68.98
2192;BME280;1102;49.718;11.902;2022-07-05T01:05:28;96538.75;;;18.20;69.87
2192;BME280;1102;49.718;11.902;2022-07-05T01:07:56;96535.72;;;18.25;70.85
2192;BME280;1102;49.718;11.902;2022-07-05T01:10:23;96532.41;;;17.91;70.71
2192;BME280;1102;49.718;11.902;2022-07-05T01:12:49;96530.59;;;18.06;71.85
2192;BME280;1102;49.718;11.902;2022-07-05T01:15:17;96535.50;;;18.00;73.00
2192;BME280;1102;49.718;11.902;2022-07-05T01:17:46;96515.56;;;17.54;72.01
2192;BME280;1102;49.718;11.902;2022-07-05T01:20:13;96532.88;;;17.67;72.04
2192;BME280;1102;49.718;11.902;2022-07-05T01:22:54;96535.72;;;17.48;72.38
2192;BME280;1102;49.718;11.902;2022-07-05T01:25:22;96534.72;;;17.59;72.41
2192;BME280;1102;49.718;11.902;2022-07-05T01:27:50;96518.38;;;17.34;72.22
2192;BME280;1102;49.718;11.902;2022-07-05T01:30:18;96537.16;;;17.38;72.49
2192;BME280;1102;49.718;11.902;2022-07-05T01:32:45;96496.09;;;17.20;72.35
2192;BME280;1102;49.718;11.902;2022-07-05T01:35:13;96538.75;;;17.46;72.53
2192;BME280;1102;49.718;11.902;2022-07-05T01:37:40;96508.28;;;17.17;73.11
2192;BME280;1102;49.718;11.902;2022-07-05T01:40:07;96526.44;;;17.04;74.33
2192;BME280;1102;49.718;11.902;2022-07-05T01:42:34;96548.63;;;17.08;74.29
2192;BME280;1102;49.718;11.902;2022-07-05T01:45:01;96520.28;;;17.00;74.90
2192;BME280;1102;49.718;11.902;2022-07-05T01:47:28;96537.13;;;17.04;76.29
2192;BME280;1102;49.718;11.902;2022-07-05T01:49:57;96530.19;;;16.70;77.05
2192;BME280;1102;49.718;11.902;2022-07-05T01:52:27;96507.13;;;16.58;77.04
2192;BME280;1102;49.718;11.902;2022-07-05T01:54:54;96490.13;;;16.43;77.46
2192;BME280;1102;49.718;11.902;2022-07-05T01:57:21;96542.09;;;16.76;77.96
2192;BME280;1102;49.718;11.902;2022-07-05T01:59:48;96537.31;;;16.62;78.35
2192;BME280;1102;49.718;11.902;2022-07-05T02:02:34;96536.16;;;16.63;78.47
2192;BME280;1102;49.718;11.902;2022-07-05T02:05:11;96539.34;;;16.46;79.96
2192;BME280;1102;49.718;11.902;2022-07-05T02:07:47;96545.75;;;16.41;79.91
2192;BME280;1102;49.718;11.902;2022-07-05T02:10:14;96504.09;;;16.10;80.61
2192;BME280;1102;49.718;11.902;2022-07-05T02:12:41;96540.72;;;16.36;81.09
2192;BME280;1102;49.718;11.902;2022-07-05T02:15:09;96552.47;;;16.32;81.09
2192;BME280;1102;49.718;11.902;2022-07-05T02:17:37;96546.97;;;16.21;81.38
2192;BME280;1102;49.718;11.902;2022-07-05T02:20:04;96550.81;;;16.23;82.16
2192;BME280;1102;49.718;11.902;2022-07-05T02:22:32;96552.59;;;16.16;82.27
2192;BME280;1102;49.718;11.902;2022-07-05T02:25:00;96528.88;;;16.11;81.88
2192;BME280;1102;49.718;11.902;2022-07-05T02:27:26;96528.66;;;15.96;82.43
2192;BME280;1102;49.718;11.902;2022-07-05T02:29:54;96519.69;;;15.85;82.91
2192;BME280;1102;49.718;11.902;2022-07-05T02:32:29;96556.22;;;16.04;83.42
2192;BME280;1102;49.718;11.902;2022-07-05T02:34:59;96530.09;;;15.90;83.08
2192;BME280;1102;49.718;11.902;2022-07-05T02:37:27;96564.16;;;16.23;82.57
2192;BME280;1102;49.718;11.902;2022-07-05T02:39:54;96564.75;;;16.13;82.67
2192;BME280;1102;49.718;11.902;2022-07-05T02:42:21;96576.59;;;15.93;83.90
2192;BME280;1102;49.718;11.902;2022-07-05T02:44:48;96541.91;;;15.70;85.29
2192;BME280;1102;49.718;11.902;2022-07-05T02:47:17;96577.69;;;16.11;84.43
2192;BME280;1102;49.718;11.902;2022-07-05T02:49:44;96555.31;;;15.96;84.19
2192;BME280;1102;49.718;11.902;2022-07-05T02:52:11;96574.50;;;15.83;85.43
2192;BME280;1102;49.718;11.902;2022-07-05T02:54:38;96553.19;;;15.83;86.75
2192;BME280;1102;49.718;11.902;2022-07-05T02:57:07;96586.16;;;15.94;86.88
2192;BME280;1102;49.718;11.902;2022-07-05T02:59:34;96575.88;;;15.96;86.95
2192;BME280;1102;49.718;11.902;2022-07-05T03:02:01;96586.97;;;15.98;86.65
2192;BME280;1102;49.718;11.902;2022-07-05T03:04:28;96546.00;;;15.64;87.20
2192;BME280;1102;49.718;11.902;2022-07-05T03:06:56;96564.00;;;15.90;87.82
2192;BME280;1102;49.718;11.902;2022-07-05T03:09:27;96566.03;;;16.00;88.24
2192;BME280;1102;49.718;11.902;2022-07-05T03:11:55;96560.44;;;16.05;87.62
2192;BME280;1102;49.718;11.902;2022-07-05T03:14:23;96593.03;;;16.18;88.70
2192;BME280;1102;49.718;11.902;2022-07-05T03:16:51;96567.13;;;15.95;88.77
2192;BME280;1102;49.718;11.902;2022-07-05T03:19:20;96587.88;;;16.29;87.47
2192;BME280;1102;49.718;11.902;2022-07-05T03:21:47;96579.81;;;16.25;88.57
2192;BME280;1102;49.718;11.902;2022-07-05T03:24:13;96590.75;;;16.16;92.37
2192;BME280;1102;49.718;11.902;2022-07-05T03:26:40;96594.59;;;16.19;92.06
2192;BME280;1102;49.718;11.902;2022-07-05T03:29:07;96577.69;;;16.11;91.94
2192;BME280;1102;49.718;11.902;2022-07-05T03:31:38;96599.25;;;16.25;91.57
2192;BME280;1102;49.718;11.902;2022-07-05T03:34:14;96587.22;;;16.12;90.89
2192;BME280;1102;49.718;11.902;2022-07-05T03:36:41;96609.97;;;16.29;90.19
2192;BME280;1102;49.718;11.902;2022-07-05T03:39:12;96603.22;;;16.12;90.98
2192;BME280;1102;49.718;11.902;2022-07-05T03:41:40;96617.88;;;16.22;89.74
2192;BME280;1102;49.718;11.902;2022-07-05T03:44:08;96612.53;;;16.22;90.42
2192;BME280;1102;49.718;11.902;2022-07-05T03:46:35;96611.72;;;16.18;92.15
2192;BME280;1102;49.718;11.902;2022-07-05T03:49:02;96623.69;;;16.05;92.41
2192;BME280;1102;49.718;11.902;2022-07-05T03:51:29;96633.69;;;16.11;92.97
2192;BME280;1102;49.718;11.902;2022-07-05T03:53:57;96623.59;;;16.01;93.91
2192;BME280;1102;49.718;11.902;2022-07-05T03:56:25;96629.72;;;16.24;93.24
2192;BME280;1102;49.718;11.902;2022-07-05T03:58:57;96606.13;;;16.04;93.11
2192;BME280;1102;49.718;11.902;2022-07-05T04:01:24;96635.56;;;16.30;92.92
2192;BME280;1102;49.718;11.902;2022-07-05T04:03:53;96621.59;;;15.94;93.52
2192;BME280;1102;49.718;11.902;2022-07-05T04:06:20;96638.50;;;16.25;94.10
2192;BME280;1102;49.718;11.902;2022-07-05T04:08:48;96614.81;;;16.01;94.09
2192;BME280;1102;49.718;11.902;2022-07-05T04:11:15;96634.97;;;15.98;93.69
2192;BME280;1102;49.718;11.902;2022-07-05T04:13:45;96621.44;;;16.07;92.34
2192;BME280;1102;49.718;11.902;2022-07-05T04:16:12;96627.59;;;16.11;92.00
2192;BME280;1102;49.718;11.902;2022-07-05T04:18:39;96647.53;;;16.40;93.66
2192;BME280;1102;49.718;11.902;2022-07-05T04:21:06;96644.28;;;16.50;90.74
2192;BME280;1102;49.718;11.902;2022-07-05T04:23:34;96631.47;;;16.36;91.87
2192;BME280;1102;49.718;11.902;2022-07-05T04:26:02;96646.25;;;16.11;90.40
2192;BME280;1102;49.718;11.902;2022-07-05T04:28:38;96617.44;;;15.97;90.25
2192;BME280;1102;49.718;11.902;2022-07-05T04:31:08;96648.19;;;16.33;89.97
2192;BME280;1102;49.718;11.902;2022-07-05T04:33:39;96652.50;;;16.18;91.12
2192;BME280;1102;49.718;11.902;2022-07-05T04:36:07;96622.63;;;16.09;90.43
2192;BME280;1102;49.718;11.902;2022-07-05T04:38:34;96647.09;;;16.15;91.10
2192;BME280;1102;49.718;11.902;2022-07-05T04:41:02;96647.81;;;16.12;91.30
2192;BME280;1102;49.718;11.902;2022-07-05T04:43:31;96619.81;;;16.02;92.54
2192;BME280;1102;49.718;11.902;2022-07-05T04:46:02;96622.41;;;15.99;92.70
2192;BME280;1102;49.718;11.902;2022-07-05T04:48:29;96649.03;;;15.95;92.87
2192;BME280;1102;49.718;11.902;2022-07-05T04:50:56;96658.97;;;15.98;92.01
2192;BME280;1102;49.718;11.902;2022-07-05T04:53:24;96601.84;;;15.76;91.23
2192;BME280;1102;49.718;11.902;2022-07-05T04:55:50;96662.63;;;16.09;92.13
2192;BME280;1102;49.718;11.902;2022-07-05T04:58:17;96618.38;;;15.66;92.88
2192;BME280;1102;49.718;11.902;2022-07-05T05:00:44;96639.53;;;15.98;91.34
2192;BME280;1102;49.718;11.902;2022-07-05T05:03:10;96673.00;;;16.57;90.57
2192;BME280;1102;49.718;11.902;2022-07-05T05:05:37;96665.94;;;16.68;90.23
2192;BME280;1102;49.718;11.902;2022-07-05T05:08:04;96642.59;;;16.42;89.23
2192;BME280;1102;49.718;11.902;2022-07-05T05:10:31;96636.34;;;16.31;89.70
2192;BME280;1102;49.718;11.902;2022-07-05T05:12:58;96667.47;;;16.46;90.70
2192;BME280;1102;49.718;11.902;2022-07-05T05:15:24;96665.88;;;16.64;90.29
2192;BME280;1102;49.718;11.902;2022-07-05T05:17:51;96672.50;;;16.70;88.97
2192;BME280;1102;49.718;11.902;2022-07-05T05:20:19;96670.75;;;16.81;88.62
2192;BME280;1102;49.718;11.902;2022-07-05T05:22:46;96671.03;;;16.99;87.94
2192;BME280;1102;49.718;11.902;2022-07-05T05:25:13;96655.84;;;17.07;85.81
2192;BME280;1102;49.718;11.902;2022-07-05T05:27:45;96675.44;;;17.14;86.63
2192;BME280;1102;49.718;11.902;2022-07-05T05:30:15;96673.34;;;17.27;86.82
2192;BME280;1102;49.718;11.902;2022-07-05T05:32:42;96648.41;;;17.20;87.57
2192;BME280;1102;49.718;11.902;2022-07-05T05:35:09;96665.22;;;16.94;88.22
2192;BME280;1102;49.718;11.902;2022-07-05T05:37:50;96683.63;;;17.25;88.55
2192;BME280;1102;49.718;11.902;2022-07-05T05:40:18;96676.09;;;17.34;85.36
2192;BME280;1102;49.718;11.902;2022-07-05T05:42:45;96675.25;;;17.57;86.49
2192;BME280;1102;49.718;11.902;2022-07-05T05:45:12;96638.88;;;17.22;84.55
2192;BME280;1102;49.718;11.902;2022-07-05T05:47:47;96685.44;;;17.74;84.67
2192;BME280;1102;49.718;11.902;2022-07-05T05:50:21;96693.84;;;17.76;84.33
2192;BME280;1102;49.718;11.902;2022-07-05T05:52:48;96668.78;;;17.58;86.47
2192;BME280;1102;49.718;11.902;2022-07-05T05:55:15;96697.03;;;17.85;84.03
2192;BME280;1102;49.718;11.902;2022-07-05T05:57:42;96665.38;;;17.61;83.41
2192;BME280;1102;49.718;11.902;2022-07-05T06:00:09;96705.16;;;17.92;84.59
2192;BME280;1102;49.718;11.902;2022-07-05T06:02:39;96681.41;;;17.61;83.95
2192;BME280;1102;49.718;11.902;2022-07-05T06:05:07;96674.88;;;17.85;83.13
2192;BME280;1102;49.718;11.902;2022-07-05T06:07:52;96684.13;;;17.91;83.97
2192;BME280;1102;49.718;11.902;2022-07-05T06:10:23;96708.78;;;18.44;80.32
2192;BME280;1102;49.718;11.902;2022-07-05T06:12:51;96708.81;;;18.88;77.99
2192;BME280;1102;49.718;11.902;2022-07-05T06:15:19;96711.06;;;18.83;74.88
2192;BME280;1102;49.718;11.902;2022-07-05T06:17:46;96709.19;;;18.87;75.53
2192;BME280;1102;49.718;11.902;2022-07-05T06:20:17;96723.00;;;19.44;73.06
2192;BME280;1102;49.718;11.902;2022-07-05T06:22:45;96718.03;;;19.46;73.20
2192;BME280;1102;49.718;11.902;2022-07-05T06:25:12;96714.97;;;20.17;71.27
2192;BME280;1102;49.718;11.902;2022-07-05T06:27:51;96720.00;;;20.32;69.35
2192;BME280;1102;49.718;11.902;2022-07-05T06:30:19;96714.72;;;20.61;68.20
2192;BME280;1102;49.718;11.902;2022-07-05T06:32:48;96711.03;;;20.00;69.41
2192;BME280;1102;49.718;11.902;2022-07-05T06:35:15;96680.06;;;20.17;68.10
2192;BME280;1102;49.718;11.902;2022-07-05T06:37:49;96715.09;;;20.66;67.34
2192;BME280;1102;49.718;11.902;2022-07-05T06:40:20;96717.81;;;21.02;67.60
2192;BME280;1102;49.718;11.902;2022-07-05T06:42:47;96718.19;;;21.04;65.56
2192;BME280;1102;49.718;11.902;2022-07-05T06:45:16;96727.41;;;21.14;65.57
2192;BME280;1102;49.718;11.902;2022-07-05T06:47:42;96720.41;;;21.77;63.92
2192;BME280;1102;49.718;11.902;2022-07-05T06:50:09;96703.16;;;21.49;64.13
2192;BME280;1102;49.718;11.902;2022-07-05T06:52:37;96716.44;;;22.17;63.47
2192;BME280;1102;49.718;11.902;2022-07-05T06:55:04;96715.50;;;21.01;64.38
2192;BME280;1102;49.718;11.902;2022-07-05T06:57:31;96691.28;;;21.04;65.60
2192;BME280;1102;49.718;11.902;2022-07-05T06:59:58;96714.72;;;21.21;64.59
2192;BME280;1102;49.718;11.902;2022-07-05T07:02:26;96671.72;;;20.72;64.98
2192;BME280;1102;49.718;11.902;2022-07-05T07:04:53;96692.34;;;20.28;67.65
2192;BME280;1102;49.718;11.902;2022-07-05T07:07:38;96698.13;;;20.34;67.73
2192;BME280;1102;49.718;11.902;2022-07-05T07:10:23;96717.00;;;20.70;67.31
2192;BME280;1102;49.718;11.902;2022-07-05T07:12:56;96723.19;;;20.99;66.93
2192;BME280;1102;49.718;11.902;2022-07-05T07:15:23;96720.09;;;20.86;67.27
2192;BME280;1102;49.718;11.902;2022-07-05T07:17:50;96728.13;;;21.50;66.24
2192;BME280;1102;49.718;11.902;2022-07-05T07:20:17;96727.75;;;21.59;66.25
2192;BME280;1102;49.718;11.902;2022-07-05T07:22:44;96731.25;;;21.38;65.61
2192;BME280;1102;49.718;11.902;2022-07-05T07:25:11;96703.97;;;21.32;64.83
2192;BME280;1102;49.718;11.902;2022-07-05T07:27:44;96734.69;;;21.49;64.89
2192;BME280;1102;49.718;11.902;2022-07-05T07:30:13;96730.84;;;21.14;66.57
2192;BME280;1102;49.718;11.902;2022-07-05T07:32:41;96718.59;;;21.28;64.92
2192;BME280;1102;49.718;11.902;2022-07-05T07:35:08;96750.69;;;22.13;63.03
2192;BME280;1102;49.718;11.902;2022-07-05T07:37:36;96737.63;;;22.78;60.87
2192;BME280;1102;49.718;11.902;2022-07-05T07:40:03;96740.34;;;23.29;59.68
2192;BME280;1102;49.718;11.902;2022-07-05T07:42:30;96734.31;;;23.56;59.56
2192;BME280;1102;49.718;11.902;2022-07-05T07:44:57;96744.59;;;23.72;59.20
2192;BME280;1102;49.718;11.902;2022-07-05T07:47:24;96709.91;;;23.29;59.13
2192;BME280;1102;49.718;11.902;2022-07-05T07:49:51;96723.94;;;23.10;59.14
2192;BME280;1102;49.718;11.902;2022-07-05T07:52:17;96727.91;;;22.98;59.19
2192;BME280;1102;49.718;11.902;2022-07-05T07:54:44;96744.94;;;23.74;58.50
2192;BME280;1102;49.718;11.902;2022-07-05T07:57:11;96731.66;;;23.08;58.27
2192;BME280;1102;49.718;11.902;2022-07-05T07:59:38;96734.31;;;23.56;58.05
2192;BME280;1102;49.718;11.902;2022-07-05T08:02:04;96719.69;;;24.22;56.09
2192;BME280;1102;49.718;11.902;2022-07-05T08:04:31;96741.53;;;24.92;55.67
2192;BME280;1102;49.718;11.902;2022-07-05T08:06:58;96741.47;;;24.95;54.23
2192;BME280;1102;49.718;11.902;2022-07-05T08:09:24;96735.22;;;25.02;53.81
2192;BME280;1102;49.718;11.902;2022-07-05T08:11:51;96740.06;;;25.14;53.19
2192;BME280;1102;49.718;11.902;2022-07-05T08:14:17;96720.00;;;25.12;52.93
2192;BME280;1102;49.718;11.902;2022-07-05T08:16:47;96741.44;;;25.89;52.18
2192;BME280;1102;49.718;11.902;2022-07-05T08:19:20;96743.50;;;26.05;52.28
2192;BME280;1102;49.718;11.902;2022-07-05T08:22:06;96739.25;;;25.84;50.21
2192;BME280;1102;49.718;11.902;2022-07-05T08:24:36;96708.34;;;25.58;49.68
2192;BME280;1102;49.718;11.902;2022-07-05T08:27:03;96728.38;;;26.04;48.64
2192;BME280;1102;49.718;11.902;2022-07-05T08:29:30;96737.19;;;25.68;47.97
2192;BME280;1102;49.718;11.902;2022-07-05T08:31:57;96729.34;;;25.30;48.28
2192;BME280;1102;49.718;11.902;2022-07-05T08:34:24;96682.97;;;25.28;48.04
2192;BME280;1102;49.718;11.902;2022-07-05T08:36:50;96743.06;;;25.86;47.59
2192;BME280;1102;49.718;11.902;2022-07-05T08:39:17;96727.44;;;25.94;48.21
2192;BME280;1102;49.718;11.902;2022-07-05T08:41:48;96703.31;;;24.90;48.25
2192;BME280;1102;49.718;11.902;2022-07-05T08:44:19;96722.94;;;25.64;48.52
2192;BME280;1102;49.718;11.902;2022-07-05T08:46:47;96732.06;;;26.33;47.95
2192;BME280;1102;49.718;11.902;2022-07-05T08:49:14;96722.75;;;25.75;48.24
2192;BME280;1102;49.718;11.902;2022-07-05T08:51:42;96724.06;;;24.73;47.85
2192;BME280;1102;49.718;11.902;2022-07-05T08:54:10;96718.63;;;25.23;48.42
2192;BME280;1102;49.718;11.902;2022-07-05T08:56:41;96728.59;;;25.73;47.70
2192;BME280;1102;49.718;11.902;2022-07-05T08:59:28;96699.22;;;25.28;47.74
2192;BME280;1102;49.718;11.902;2022-07-05T09:01:56;96723.03;;;26.40;47.65
2192;BME280;1102;49.718;11.902;2022-07-05T09:04:24;96727.44;;;27.02;45.43
2192;BME280;1102;49.718;11.902;2022-07-05T09:07:02;96719.41;;;27.44;45.23
2192;BME280;1102;49.718;11.902;2022-07-05T09:09:32;96723.81;;;27.54;43.81
2192;BME280;1102;49.718;11.902;2022-07-05T09:12:00;96723.78;;;27.09;43.80
2192;BME280;1102;49.718;11.902;2022-07-05T09:14:46;96725.19;;;26.65;44.50
2192;BME280;1102;49.718;11.902;2022-07-05T09:17:14;96720.16;;;26.47;45.60
2192;BME280;1102;49.718;11.902;2022-07-05T09:19:41;96723.72;;;27.58;44.53
2192;BME280;1102;49.718;11.902;2022-07-05T09:22:08;96692.53;;;26.52;44.80
2192;BME280;1102;49.718;11.902;2022-07-05T09:24:45;96713.41;;;25.13;47.34
2192;BME280;1102;49.718;11.902;2022-07-05T09:27:13;96677.53;;;24.58;48.30
2192;BME280;1102;49.718;11.902;2022-07-05T09:29:53;96711.19;;;24.54;47.25
2192;BME280;1102;49.718;11.902;2022-07-05T09:32:28;96707.09;;;25.43;47.00
2192;BME280;1102;49.718;11.902;2022-07-05T09:35:15;96679.28;;;25.82;46.30
2192;BME280;1102;49.718;11.902;2022-07-05T09:37:43;96718.84;;;26.15;45.28
2192;BME280;1102;49.718;11.902;2022-07-05T09:40:11;96684.31;;;26.19;44.37
2192;BME280;1102;49.718;11.902;2022-07-05T09:42:45;96691.72;;;26.71;44.06
2192;BME280;1102;49.718;11.902;2022-07-05T09:45:24;96717.19;;;26.21;43.90
2192;BME280;1102;49.718;11.902;2022-07-05T09:47:54;96716.72;;;26.79;44.23
2192;BME280;1102;49.718;11.902;2022-07-05T09:50:42;96708.22;;;25.65;44.36
2192;BME280;1102;49.718;11.902;2022-07-05T09:53:51;96716.84;;;24.63;44.91
2192;BME280;1102;49.718;11.902;2022-07-05T09:56:25;96680.78;;;24.46;44.70
2192;BME280;1102;49.718;11.902;2022-07-05T09:58:55;96682.00;;;24.92;44.71
2192;BME280;1102;49.718;11.902;2022-07-05T10:01:27;96719.25;;;25.54;43.79
2192;BME280;1102;49.718;11.902;2022-07-05T10:04:01;96715.25;;;26.02;44.05
2192;BME280;1102;49.718;11.902;2022-07-05T10:06:31;96723.34;;;26.42;42.92
2192;BME280;1102;49.718;11.902;2022-07-05T10:08:58;96717.63;;;26.56;42.10
2192;BME280;1102;49.718;11.902;2022-07-05T10:11:26;96719.19;;;26.17;42.86
2192;BME280;1102;49.718;11.902;2022-07-05T10:13:58;96719.25;;;26.70;41.50
2192;BME280;1102;49.718;11.902;2022-07-05T10:16:25;96695.16;;;26.56;41.94
2192;BME280;1102;49.718;11.902;2022-07-05T10:18:54;96720.16;;;26.47;41.94
2192;BME280;1102;49.718;11.902;2022-07-05T10:21:23;96716.59;;;27.02;41.53
2192;BME280;1102;49.718;11.902;2022-07-05T10:23:50;96696.03;;;25.97;43.13
2192;BME280;1102;49.718;11.902;2022-07-05T10:26:21;96721.97;;;26.34;41.23
2192;BME280;1102;49.718;11.902;2022-07-05T10:28:50;96705.03;;;26.98;39.68
2192;BME280;1102;49.718;11.902;2022-07-05T10:31:28;96706.03;;;26.88;39.74
2192;BME280;1102;49.718;11.902;2022-07-05T10:33:56;96703.44;;;26.85;38.26
2192;BME280;1102;49.718;11.902;2022-07-05T10:36:24;96715.44;;;26.84;38.61
2192;BME280;1102;49.718;11.902;2022-07-05T10:38:51;96724.63;;;26.73;38.75
2192;BME280;1102;49.718;11.902;2022-07-05T10:41:22;96725.03;;;26.16;39.26
2192;BME280;1102;49.718;11.902;2022-07-05T10:43:54;96701.56;;;25.89;39.82
2192;BME280;1102;49.718;11.902;2022-07-05T10:46:37;96711.63;;;26.65;39.35
2192;BME280;1102;49.718;11.902;2022-07-05T10:51:38;96692.59;;;27.01;38.96
2192;BME280;1102;49.718;11.902;2022-07-05T10:54:06;96708.34;;;27.22;37.88
2192;BME280;1102;49.718;11.902;2022-07-05T10:56:32;96701.53;;;27.76;36.54
2192;BME280;1102;49.718;11.902;2022-07-05T10:59:07;96715.09;;;26.81;37.34
2192;BME280;1102;49.718;11.902;2022-07-05T11:01:37;96708.00;;;26.71;37.53
2192;BME280;1102;49.718;11.902;2022-07-05T11:12:12;96676.78;;;25.71;38.06
2192;BME280;1102;49.718;11.902;2022-07-05T11:14:52;96709.25;;;27.32;36.73
2192;BME280;1102;49.718;11.902;2022-07-05T11:17:20;96709.78;;;27.72;36.46
2192;BME280;1102;49.718;11.902;2022-07-05T11:20:16;96712.00;;;27.61;35.06
2192;BME280;1102;49.718;11.902;2022-07-05T11:25:34;96679.50;;;26.79;35.89
2192;BME280;1102;49.718;11.902;2022-07-05T11:28:05;96708.34;;;27.22;36.45
2192;BME280;1102;49.718;11.902;2022-07-05T11:36:18;96705.25;;;27.82;35.02
2192;BME280;1102;49.718;11.902;2022-07-05T11:39:06;96699.69;;;26.06;37.19
2192;BME280;1102;49.718;11.902;2022-07-05T11:41:45;96692.94;;;25.55;35.97
2192;BME280;1102;49.718;11.902;2022-07-05T11:44:13;96697.75;;;25.67;37.11
2192;BME280;1102;49.718;11.902;2022-07-05T11:46:42;96695.28;;;25.53;37.47
2192;BME280;1102;49.718;11.902;2022-07-05T11:49:22;96671.47;;;25.64;37.54
2192;BME280;1102;49.718;11.902;2022-07-05T11:52:00;96692.81;;;27.06;35.58
2192;BME280;1102;49.718;11.902;2022-07-05T11:54:30;96695.44;;;27.26;34.58
2192;BME280;1102;49.718;11.902;2022-07-05T11:56:59;96662.69;;;26.36;35.29
2192;BME280;1102;49.718;11.902;2022-07-05T11:59:26;96697.28;;;25.72;36.42
2192;BME280;1102;49.718;11.902;2022-07-05T12:01:53;96689.00;;;24.89;37.58
2192;BME280;1102;49.718;11.902;2022-07-05T12:04:26;96664.31;;;24.37;38.36
2192;BME280;1102;49.718;11.902;2022-07-05T12:06:54;96677.63;;;24.51;38.65
2192;BME280;1102;49.718;11.902;2022-07-05T12:09:30;96684.34;;;24.66;38.26
2192;BME280;1102;49.718;11.902;2022-07-05T12:12:19;96680.94;;;24.35;38.95
2192;BME280;1102;49.718;11.902;2022-07-05T12:15:05;96661.63;;;24.84;37.66
2192;BME280;1102;49.718;11.902;2022-07-05T12:17:37;96674.00;;;25.95;36.83
2192;BME280;1102;49.718;11.902;2022-07-05T12:20:07;96668.91;;;26.85;35.13
2192;BME280;1102;49.718;11.902;2022-07-05T12:22:39;96675.09;;;27.02;34.57
2192;BME280;1102;49.718;11.902;2022-07-05T12:25:10;96680.50;;;27.18;34.88
2192;BME280;1102;49.718;11.902;2022-07-05T12:27:38;96668.88;;;26.36;35.63
2192;BME280;1102;49.718;11.902;2022-07-05T12:30:07;96674.00;;;27.16;34.99
2192;BME280;1102;49.718;11.902;2022-07-05T12:33:09;96675.34;;;27.07;35.25
2192;BME280;1102;49.718;11.902;2022-07-05T12:40:39;96668.47;;;25.39;36.46
2192;BME280;1102;49.718;11.902;2022-07-05T12:43:08;96669.00;;;25.30;37.06
2192;BME280;1102;49.718;11.902;2022-07-05T12:45:37;96667.66;;;25.18;37.77
2192;BME280;1102;49.718;11.902;2022-07-05T12:48:05;96667.13;;;25.70;37.59
2192;BME280;1102;49.718;11.902;2022-07-05T12:50:50;96666.34;;;26.94;37.11
2192;BME280;1102;49.718;11.902;2022-07-05T12:53:48;96676.47;;;27.97;34.79
2192;BME280;1102;49.718;11.902;2022-07-05T12:56:35;96625.88;;;27.16;34.97
2192;BME280;1102;49.718;11.902;2022-07-05T12:59:57;96645.00;;;27.42;35.77
2192;BME280;1102;49.718;11.902;2022-07-05T13:05:09;96631.91;;;27.07;35.38
2192;BME280;1102;49.718;11.902;2022-07-05T13:07:48;96667.94;;;27.70;35.03
2192;BME280;1102;49.718;11.902;2022-07-05T13:10:24;96667.34;;;26.51;36.16
2192;BME280;1102;49.718;11.902;2022-07-05T13:12:51;96662.31;;;25.98;36.27
2192;BME280;1102;49.718;11.902;2022-07-05T13:15:19;96641.06;;;25.56;36.26
2192;BME280;1102;49.718;11.902;2022-07-05T13:17:46;96651.06;;;26.84;35.06
2192;BME280;1102;49.718;11.902;2022-07-05T13:20:15;96656.88;;;27.31;35.26
2192;BME280;1102;49.718;11.902;2022-07-05T13:22:45;96639.38;;;27.61;33.85
2192;BME280;1102;49.718;11.902;2022-07-05T13:25:12;96659.38;;;27.26;34.09
2192;BME280;1102;49.718;11.902;2022-07-05T13:27:39;96638.50;;;27.81;33.62
2192;BME280;1102;49.718;11.902;2022-07-05T13:30:07;96652.81;;;28.48;32.24
2192;BME280;1102;49.718;11.902;2022-07-05T13:32:34;96667.19;;;28.49;32.83
2192;BME280;1102;49.718;11.902;2022-07-05T13:35:00;96660.97;;;28.36;32.55
2192;BME280;1102;49.718;11.902;2022-07-05T13:37:27;96661.19;;;28.29;32.23
2192;BME280;1102;49.718;11.902;2022-07-05T13:39:54;96650.41;;;28.89;32.41
2192;BME280;1102;49.718;11.902;2022-07-05T13:42:20;96655.16;;;28.97;31.48
2192;BME280;1102;49.718;11.902;2022-07-05T13:44:47;96668.16;;;28.42;31.64
2192;BME280;1102;49.718;11.902;2022-07-05T13:47:14;96661.59;;;28.78;32.44
2192;BME280;1102;49.718;11.902;2022-07-05T13:49:40;96653.44;;;28.14;32.17
2192;BME280;1102;49.718;11.902;2022-07-05T13:52:09;96635.31;;;26.63;33.27